createdAt,value
2019-05-07T11:43:57.498Z,16.20
2019-05-07T11:46:32.803Z,16.60
2019-05-07T11:49:13.883Z,16.80
2019-05-07T11:51:45.075Z,17.00
2019-05-07T11:54:15.607Z,17.10
2019-05-07T11:56:45.035Z,16.70
2019-05-07T11:59:14.509Z,16.40
2019-05-07T12:01:47.703Z,16.40
2019-05-07T12:04:16.857Z,16.60
2019-05-07T12:06:46.322Z,16.70
2019-05-07T12:09:15.779Z,16.50
2019-05-07T12:11:45.282Z,16.50
2019-05-07T12:14:27.773Z,16.70
2019-05-07T12:16:46.034Z,16.50
2019-05-07T12:19:16.633Z,16.30
2019-05-07T12:21:46.323Z,16.60
2019-05-07T12:24:16.453Z,16.70
2019-05-07T12:26:46.086Z,16.90
2019-05-07T12:29:15.635Z,17.50
2019-05-07T12:32:02.828Z,18.00
2019-05-07T12:34:36.693Z,17.40
2019-05-07T12:37:06.158Z,17.40
2019-05-07T12:39:35.584Z,17.80
2019-05-07T12:42:05.054Z,18.50
2019-05-07T12:44:34.564Z,18.60
2019-05-07T12:47:05.499Z,18.20
2019-05-07T12:49:34.926Z,17.60
2019-05-07T12:52:14.997Z,17.90
2019-05-07T12:54:54.850Z,18.10
2019-05-07T12:57:24.312Z,18.20
2019-05-07T12:59:53.760Z,18.40
2019-05-07T13:02:37.416Z,18.80
2019-05-07T13:04:58.040Z,19.30
2019-05-07T13:07:28.867Z,19.50
2019-05-07T13:09:58.341Z,19.60
2019-05-07T13:12:27.851Z,19.80
2019-05-07T13:14:57.328Z,19.90
2019-05-07T13:17:26.762Z,20.10
2019-05-07T13:19:56.187Z,19.40
2019-05-07T13:22:25.734Z,19.00
2019-05-07T13:24:55.226Z,19.40
2019-05-07T13:27:24.770Z,19.70
2019-05-07T13:29:54.194Z,19.90
2019-05-07T13:32:23.661Z,19.70
2019-05-07T13:34:53.137Z,19.60
2019-05-07T13:37:24.274Z,19.40
2019-05-07T13:39:55.366Z,19.70
2019-05-07T13:42:44.555Z,19.60
2019-05-07T13:45:27.551Z,19.80
2019-05-07T13:47:58.662Z,20.10
2019-05-07T13:50:28.198Z,20.50
2019-05-07T13:52:57.751Z,20.60
2019-05-07T13:55:27.310Z,20.70
2019-05-07T13:57:56.773Z,21.00
2019-05-07T14:00:27.883Z,20.50
2019-05-07T14:02:57.323Z,20.00
2019-05-07T14:05:26.863Z,20.10
2019-05-07T14:07:56.473Z,20.00
2019-05-07T14:10:25.959Z,19.80
2019-05-07T14:13:07.649Z,19.80
2019-05-07T14:15:26.647Z,20.00
2019-05-07T14:17:56.229Z,20.10
2019-05-07T14:20:25.743Z,20.30
2019-05-07T14:22:55.229Z,20.50
2019-05-07T14:25:24.680Z,20.30
2019-05-07T14:27:54.225Z,20.00
2019-05-07T14:30:24.454Z,19.60
2019-05-07T14:33:01.859Z,18.80
2019-05-07T14:35:42.048Z,18.20
2019-05-07T14:38:16.255Z,18.60
2019-05-07T14:40:45.765Z,19.00
2019-05-07T14:43:21.849Z,19.50
2019-05-07T14:45:52.240Z,20.10
2019-05-07T14:48:22.564Z,20.50
2019-05-07T14:50:53.089Z,21.00
2019-05-07T14:53:22.640Z,21.40
2019-05-07T14:55:52.134Z,21.50
2019-05-07T14:58:21.529Z,21.50
2019-05-07T15:00:51.831Z,21.40
2019-05-07T15:03:22.872Z,21.40
2019-05-07T15:05:52.684Z,21.20
2019-05-07T15:08:22.183Z,20.90
2019-05-07T15:10:52.478Z,20.90
2019-05-07T15:13:22.190Z,20.80
2019-05-07T15:15:52.503Z,20.80
2019-05-07T15:18:23.819Z,20.40
2019-05-07T15:20:53.264Z,20.20
2019-05-07T15:23:24.478Z,19.70
2019-05-07T15:25:53.931Z,19.60
2019-05-07T15:28:23.515Z,18.90
2019-05-07T15:30:57.354Z,18.50
2019-05-07T15:33:26.783Z,18.70
2019-05-07T15:35:56.303Z,18.70
2019-05-07T15:38:28.610Z,18.70
2019-05-07T15:40:58.131Z,18.80
2019-05-07T15:43:27.551Z,18.60
2019-05-07T15:45:56.972Z,18.40
2019-05-07T15:48:26.439Z,18.10
2019-05-07T15:50:55.922Z,18.10
2019-05-07T15:53:27.061Z,18.00
2019-05-07T15:55:56.533Z,17.80
2019-05-07T15:58:25.979Z,17.70
2019-05-07T16:00:55.475Z,17.60
2019-05-07T16:03:32.495Z,17.50
2019-05-07T16:06:03.872Z,17.40
2019-05-07T16:08:34.789Z,17.20
2019-05-07T16:11:04.223Z,17.10
2019-05-07T16:13:36.374Z,17.00
2019-05-07T16:16:05.879Z,16.90
2019-05-07T16:18:36.989Z,16.80
2019-05-07T16:21:06.449Z,16.80
2019-05-07T16:23:35.936Z,16.60
2019-05-07T16:26:05.475Z,16.50
2019-05-07T16:28:34.949Z,16.30
2019-05-07T16:31:04.507Z,16.30
2019-05-07T16:33:34.741Z,16.20
2019-05-07T16:36:04.361Z,16.20
2019-05-07T16:38:36.744Z,16.00
2019-05-07T16:41:06.194Z,15.90
2019-05-07T16:43:35.726Z,15.80
2019-05-07T16:46:05.198Z,15.80
2019-05-07T16:48:34.722Z,15.80
2019-05-07T16:51:04.385Z,15.60
2019-05-07T16:53:35.259Z,15.30
2019-05-07T16:56:05.006Z,15.10
2019-05-07T16:58:52.321Z,15.10
2019-05-07T17:01:24.545Z,15.20
2019-05-07T17:03:55.291Z,15.30
2019-05-07T17:06:25.126Z,16.00
2019-05-07T17:09:02.673Z,17.20
2019-05-07T17:11:32.352Z,17.40
2019-05-07T17:14:02.261Z,17.20
2019-05-07T17:16:32.059Z,16.80
2019-05-07T17:19:02.522Z,16.60
2019-05-07T17:21:32.590Z,15.80
2019-05-07T17:24:02.682Z,15.40
2019-05-07T17:26:32.323Z,15.10
2019-05-07T17:29:02.643Z,14.90
2019-05-07T17:31:32.366Z,14.90
2019-05-07T17:34:02.257Z,14.80
2019-05-07T17:36:33.082Z,14.70
2019-05-07T17:39:02.910Z,14.50
2019-05-07T17:41:32.447Z,14.20
2019-05-07T17:44:02.655Z,14.10
2019-05-07T17:46:32.698Z,14.00
2019-05-07T17:49:02.876Z,13.80
2019-05-07T17:51:45.244Z,13.70
2019-05-07T17:54:14.752Z,13.50
2019-05-07T17:56:44.294Z,13.40
2019-05-07T17:59:13.902Z,13.30
2019-05-07T18:01:45.170Z,13.30
2019-05-07T18:04:14.848Z,13.30
2019-05-07T18:06:44.385Z,13.30
2019-05-07T18:09:13.926Z,13.30
2019-05-07T18:11:43.475Z,13.30
2019-05-07T18:14:13.024Z,13.20
2019-05-07T18:16:59.498Z,13.10
2019-05-07T18:19:32.961Z,13.00
2019-05-07T18:22:02.605Z,12.90
2019-05-07T18:24:32.668Z,12.80
2019-05-07T18:27:03.672Z,12.60
2019-05-07T18:29:33.172Z,12.50
2019-05-07T18:32:04.270Z,12.40
2019-05-07T18:34:34.069Z,12.30
2019-05-07T18:37:03.528Z,12.20
2019-05-07T18:39:34.694Z,12.10
2019-05-07T18:42:04.064Z,12.00
2019-05-07T18:44:33.552Z,11.90
2019-05-07T18:47:03.376Z,11.90
2019-05-07T18:49:32.864Z,11.80
2019-05-07T18:52:02.874Z,11.80
2019-05-07T18:54:32.568Z,11.70
2019-05-07T18:57:02.484Z,12.70
2019-05-07T18:59:33.619Z,11.60
2019-05-07T19:02:03.514Z,11.60
2019-05-07T19:04:33.008Z,11.50
2019-05-07T19:07:02.705Z,11.50
2019-05-07T19:09:32.547Z,11.50
2019-05-07T19:12:02.737Z,11.60
2019-05-07T19:14:33.299Z,11.50
2019-05-07T19:17:03.245Z,11.60
2019-05-07T19:19:32.913Z,11.50
2019-05-07T19:22:02.436Z,11.50
2019-05-07T19:24:44.588Z,11.60
2019-05-07T19:27:03.169Z,11.50
2019-05-07T19:29:32.830Z,11.40
2019-05-07T19:32:03.186Z,11.30
2019-05-07T19:34:32.654Z,11.30
2019-05-07T19:37:02.679Z,11.30
2019-05-07T19:39:32.595Z,11.30
2019-05-07T19:42:02.702Z,11.20
2019-05-07T19:44:32.226Z,11.10
2019-05-07T19:47:02.077Z,11.10
2019-05-07T19:49:32.501Z,11.10
2019-05-07T19:52:02.147Z,11.00
2019-05-07T19:54:32.391Z,11.00
2019-05-07T19:57:02.693Z,9.80
2019-05-07T19:59:32.737Z,11.00
2019-05-07T20:02:03.935Z,11.00
2019-05-07T20:04:33.430Z,10.90
2019-05-07T20:07:02.964Z,10.80
2019-05-07T20:09:34.092Z,10.70
2019-05-07T20:12:03.515Z,10.70
2019-05-07T20:14:39.112Z,10.70
2019-05-07T20:17:08.651Z,10.70
2019-05-07T20:19:38.132Z,10.60
2019-05-07T20:22:07.689Z,10.60
2019-05-07T20:24:37.055Z,10.50
2019-05-07T20:27:06.501Z,10.50
2019-05-07T20:29:36.069Z,10.40
2019-05-07T20:32:05.607Z,10.40
2019-05-07T20:34:35.060Z,10.40
2019-05-07T20:37:04.649Z,10.30
2019-05-07T20:39:34.083Z,10.30
2019-05-07T20:42:03.565Z,10.30
2019-05-07T20:44:33.076Z,10.30
2019-05-07T20:47:03.030Z,10.20
2019-05-07T20:49:32.547Z,10.20
2019-05-07T20:52:02.066Z,10.20
2019-05-07T20:54:33.203Z,10.10
2019-05-07T20:57:04.354Z,10.10
2019-05-07T20:59:33.953Z,10.10
2019-05-07T21:02:03.402Z,10.00
2019-05-07T21:04:33.116Z,10.00
2019-05-07T21:07:02.689Z,10.00
2019-05-07T21:09:32.836Z,9.90
2019-05-07T21:12:02.590Z,9.90
2019-05-07T21:14:32.591Z,9.90
2019-05-07T21:17:02.125Z,9.80
2019-05-07T21:19:33.109Z,9.80
2019-05-07T21:22:02.656Z,9.80
2019-05-07T21:24:33.061Z,9.80
2019-05-07T21:27:02.760Z,9.70
2019-05-07T21:29:32.745Z,9.70
2019-05-07T21:32:03.343Z,9.70
2019-05-07T21:34:32.912Z,9.60
2019-05-07T21:37:03.217Z,9.60
2019-05-07T21:39:33.127Z,9.60
2019-05-07T21:42:02.698Z,9.50
2019-05-07T21:44:32.713Z,9.50
2019-05-07T21:47:03.895Z,9.40
2019-05-07T21:49:33.461Z,9.40
2019-05-07T21:52:02.927Z,9.30
2019-05-07T21:54:34.059Z,9.30
2019-05-07T21:57:07.886Z,9.30
2019-05-07T21:59:39.042Z,9.30
2019-05-07T22:02:12.517Z,9.30
2019-05-07T22:04:42.171Z,9.30
2019-05-07T22:07:12.241Z,9.30
2019-05-07T22:09:41.846Z,9.20
2019-05-07T22:12:12.131Z,9.30
2019-05-07T22:14:41.710Z,9.20
2019-05-07T22:17:12.740Z,9.20
2019-05-07T22:19:42.763Z,9.10
2019-05-07T22:22:12.511Z,9.10
2019-05-07T22:24:42.538Z,9.00
2019-05-07T22:27:13.016Z,9.00
2019-05-07T22:29:42.785Z,8.90
2019-05-07T22:32:22.613Z,8.90
2019-05-07T22:34:56.848Z,8.90
2019-05-07T22:37:26.395Z,8.90
2019-05-07T22:39:55.893Z,8.90
2019-05-07T22:42:25.337Z,8.90
2019-05-07T22:44:54.870Z,8.80
2019-05-07T22:47:24.339Z,8.80
2019-05-07T22:49:54.022Z,8.80
2019-05-07T22:52:23.530Z,8.80
2019-05-07T22:54:52.959Z,8.80
2019-05-07T22:57:42.030Z,8.80
2019-05-07T23:00:12.990Z,8.70
2019-05-07T23:02:42.850Z,8.70
2019-05-07T23:05:13.923Z,8.70
2019-05-07T23:07:44.010Z,8.70
2019-05-07T23:10:13.611Z,8.60
2019-05-07T23:12:43.177Z,7.70
2019-05-07T23:15:12.679Z,8.50
2019-05-07T23:17:42.483Z,8.50
2019-05-07T23:20:12.043Z,8.50
2019-05-07T23:22:42.803Z,8.50
2019-05-07T23:25:12.477Z,8.50
2019-05-07T23:27:42.039Z,8.40
2019-05-07T23:30:12.994Z,9.70
2019-05-07T23:32:42.675Z,8.40
2019-05-07T23:35:12.762Z,8.40
2019-05-07T23:37:44.210Z,8.40
2019-05-07T23:40:17.904Z,8.30
2019-05-07T23:42:49.023Z,8.30
2019-05-07T23:45:18.491Z,8.30
2019-05-07T23:47:47.916Z,8.20
2019-05-07T23:50:17.288Z,8.20
2019-05-07T23:52:46.954Z,8.30
2019-05-07T23:55:16.389Z,8.30
2019-05-07T23:57:45.950Z,8.40
